createdAt,value
2023-05-17T00:00:21.103Z,1014.3
2023-05-17T00:01:51.613Z,1014.3
2023-05-17T00:03:22.117Z,1014.3
2023-05-17T00:04:52.632Z,1014.3
2023-05-17T00:06:23.144Z,1014.3
2023-05-17T00:07:53.659Z,1014.2
2023-05-17T00:09:24.165Z,1014.3
2023-05-17T00:10:41.141Z,1014.2
2023-05-17T00:11:58.129Z,1014.2
2023-05-17T00:13:28.624Z,1014.2
2023-05-17T00:14:59.148Z,1014.3
2023-05-17T00:16:29.000Z,1014.2
2023-05-17T00:18:00.170Z,1014.2
2023-05-17T00:19:30.687Z,1014.3
2023-05-17T00:21:01.187Z,1014.3
2023-05-17T00:22:31.711Z,1014.3
2023-05-17T00:24:02.260Z,1014.3
2023-05-17T00:25:32.717Z,1014.2
2023-05-17T00:26:49.706Z,1014.2
2023-05-17T00:28:06.669Z,1014.2
2023-05-17T00:29:37.231Z,1014.2
2023-05-17T00:31:07.699Z,1014.3
2023-05-17T00:32:38.218Z,1014.3
2023-05-17T00:34:08.722Z,1014.3
2023-05-17T00:35:39.236Z,1014.3
2023-05-17T00:37:09.748Z,1014.3
2023-05-17T00:38:40.250Z,1014.3
2023-05-17T00:40:10.759Z,1014.3
2023-05-17T00:41:41.278Z,1014.3
2023-05-17T00:42:58.253Z,1014.3
2023-05-17T00:44:15.220Z,1014.3
2023-05-17T00:45:45.737Z,1014.3
2023-05-17T00:47:16.251Z,1014.3
2023-05-17T00:48:46.771Z,1014.3
2023-05-17T00:50:17.273Z,1014.3
2023-05-17T00:51:47.790Z,1014.3
2023-05-17T00:53:18.293Z,1014.3
2023-05-17T00:54:48.816Z,1014.3
2023-05-17T00:56:19.315Z,1014.3
2023-05-17T00:57:49.842Z,1014.3
2023-05-17T01:00:23.792Z,1014.2
2023-05-17T01:01:54.300Z,1014.2
2023-05-17T01:03:24.815Z,1014.2
2023-05-17T01:04:55.318Z,1014.2
2023-05-17T01:06:25.825Z,1014.2
2023-05-17T01:07:56.338Z,1014.2
2023-05-17T01:09:26.850Z,1014.3
2023-05-17T01:10:57.361Z,1014.3
2023-05-17T01:12:27.875Z,1014.2
2023-05-17T01:13:58.400Z,1014.3
2023-05-17T01:15:15.358Z,1014.3
2023-05-17T01:16:31.910Z,1014.3
2023-05-17T01:18:02.414Z,1014.2
2023-05-17T01:19:32.922Z,1014.2
2023-05-17T01:21:03.438Z,1014.3
2023-05-17T01:22:33.944Z,1014.3
2023-05-17T01:24:04.454Z,1014.2
2023-05-17T01:25:34.983Z,1014.4
2023-05-17T01:27:05.484Z,1014.4
2023-05-17T01:28:36.000Z,1014.4
2023-05-17T01:30:06.506Z,1014.4
2023-05-17T01:31:23.482Z,1014.3
2023-05-17T01:32:40.452Z,1014.4
2023-05-17T01:34:10.976Z,1014.4
2023-05-17T01:35:41.488Z,1014.4
2023-05-17T01:37:11.991Z,1014.4
2023-05-17T01:38:42.496Z,1014.4
2023-05-17T01:40:13.011Z,1014.5
2023-05-17T01:41:43.578Z,1014.5
2023-05-17T01:43:14.046Z,1014.5
2023-05-17T01:44:44.559Z,1014.5
2023-05-17T01:46:15.094Z,1014.5
2023-05-17T01:47:32.061Z,1014.5
2023-05-17T01:48:49.050Z,1014.6
2023-05-17T01:50:19.555Z,1014.5
2023-05-17T01:51:50.056Z,1014.5
2023-05-17T01:53:20.570Z,1014.5
2023-05-17T01:54:51.093Z,1014.5
2023-05-17T01:56:21.605Z,1014.5
2023-05-17T01:57:52.119Z,1014.6
2023-05-17T01:59:22.628Z,1014.6
2023-05-17T02:02:23.643Z,1014.6
2023-05-17T02:03:40.621Z,1014.6
2023-05-17T02:04:57.599Z,1014.6
2023-05-17T02:06:28.115Z,1014.6
2023-05-17T02:07:58.624Z,1014.5
2023-05-17T02:09:29.119Z,1014.5
2023-05-17T02:10:59.644Z,1014.6
2023-05-17T02:12:30.149Z,1014.5
2023-05-17T02:14:00.661Z,1014.5
2023-05-17T02:15:31.181Z,1014.5
2023-05-17T02:17:01.680Z,1014.5
2023-05-17T02:18:32.198Z,1014.5
2023-05-17T02:19:49.174Z,1014.5
2023-05-17T02:21:06.169Z,1014.5
2023-05-17T02:22:36.659Z,1014.6
2023-05-17T02:24:07.178Z,1014.5
2023-05-17T02:25:37.678Z,1014.5
2023-05-17T02:27:08.201Z,1014.5
2023-05-17T02:28:38.728Z,1014.5
2023-05-17T02:30:09.222Z,1014.4
2023-05-17T02:31:39.734Z,1014.4
2023-05-17T02:33:10.236Z,1014.4
2023-05-17T02:34:40.752Z,1014.4
2023-05-17T02:35:57.285Z,1014.4
2023-05-17T02:37:14.255Z,1014.4
2023-05-17T02:38:44.768Z,1014.4
2023-05-17T02:40:15.292Z,1014.4
2023-05-17T02:41:45.794Z,1014.4
2023-05-17T02:43:16.323Z,1014.4
2023-05-17T02:44:46.834Z,1014.4
2023-05-17T02:46:17.339Z,1014.4
2023-05-17T02:47:47.846Z,1014.4
2023-05-17T02:49:18.359Z,1014.4
2023-05-17T02:50:48.874Z,1014.4
2023-05-17T02:52:05.838Z,1014.4
2023-05-17T02:53:22.833Z,1014.4
2023-05-17T02:54:53.338Z,1014.4
2023-05-17T02:56:23.835Z,1014.4
2023-05-17T02:57:54.361Z,1014.4
2023-05-17T02:59:24.860Z,1014.4
2023-05-17T03:00:55.384Z,1014.5
2023-05-17T03:02:25.896Z,1014.5
2023-05-17T03:03:56.416Z,1014.5
2023-05-17T03:05:26.914Z,1014.5
2023-05-17T03:06:57.429Z,1014.5
2023-05-17T03:08:14.398Z,1014.5
2023-05-17T03:09:31.378Z,1014.6
2023-05-17T03:11:01.882Z,1014.5
2023-05-17T03:12:32.408Z,1014.5
2023-05-17T03:14:02.993Z,1014.6
2023-05-17T03:15:41.621Z,1014.6
2023-05-17T03:17:12.131Z,1014.6
2023-05-17T03:18:42.637Z,1014.6
2023-05-17T03:20:13.139Z,1014.6
2023-05-17T03:23:14.174Z,1014.6
2023-05-17T03:24:31.140Z,1014.6
2023-05-17T03:25:48.115Z,1014.6
2023-05-17T03:27:18.656Z,1014.6
2023-05-17T03:30:19.655Z,1014.7
2023-05-17T03:31:50.163Z,1014.7
2023-05-17T03:33:20.673Z,1014.7
2023-05-17T03:34:51.197Z,1014.6
2023-05-17T03:36:21.708Z,1014.7
2023-05-17T03:37:52.239Z,1014.7
2023-05-17T03:39:22.714Z,1014.7
2023-05-17T03:40:39.694Z,1014.8
2023-05-17T03:41:56.668Z,1014.7
2023-05-17T03:43:27.183Z,1014.8
2023-05-17T03:44:57.689Z,1014.8
2023-05-17T03:46:28.216Z,1014.8
2023-05-17T03:49:29.234Z,1014.8
2023-05-17T03:50:59.750Z,1014.9
2023-05-17T03:52:30.243Z,1014.9
2023-05-17T03:54:00.771Z,1014.9
2023-05-17T03:55:31.273Z,1014.9
2023-05-17T03:56:48.260Z,1015
2023-05-17T03:58:05.220Z,1015
2023-05-17T03:59:35.745Z,1015
2023-05-17T04:01:06.237Z,1015
2023-05-17T04:02:36.753Z,1015.1
2023-05-17T04:04:07.270Z,1015.1
2023-05-17T04:07:08.285Z,1015.1
2023-05-17T04:08:38.800Z,1015.1
2023-05-17T04:10:09.325Z,1015.2
2023-05-17T04:12:56.792Z,1015.2
2023-05-17T04:14:13.768Z,1015.2
2023-05-17T04:15:44.290Z,1015.2
2023-05-17T04:18:45.315Z,1015.2
2023-05-17T04:20:15.818Z,1015.1
2023-05-17T04:21:46.329Z,1015.2
2023-05-17T04:23:16.837Z,1015.2
2023-05-17T04:24:47.364Z,1015.2
2023-05-17T04:26:17.862Z,1015.2
2023-05-17T04:27:48.381Z,1015.2
2023-05-17T04:30:22.337Z,1015.2
2023-05-17T04:31:52.845Z,1015.3
2023-05-17T04:33:23.349Z,1015.2
2023-05-17T04:34:53.863Z,1015.3
2023-05-17T04:36:24.372Z,1015.3
2023-05-17T04:37:54.884Z,1015.4
2023-05-17T04:39:25.395Z,1015.4
2023-05-17T04:40:55.917Z,1015.4
2023-05-17T04:42:26.418Z,1015.4
2023-05-17T04:43:56.941Z,1015.4
2023-05-17T04:46:30.876Z,1015.5
2023-05-17T04:48:01.397Z,1015.5
2023-05-17T04:49:31.000Z,1015.5
2023-05-17T04:51:02.446Z,1015.5
2023-05-17T04:52:32.935Z,1015.6
2023-05-17T04:54:03.448Z,1015.6
2023-05-17T04:55:33.961Z,1015.7
2023-05-17T04:57:04.459Z,1015.7
2023-05-17T04:58:34.983Z,1015.8
2023-05-17T05:00:05.485Z,1015.8
2023-05-17T05:04:09.584Z,1015.8
2023-05-17T05:07:10.612Z,1015.8
2023-05-17T05:08:41.123Z,1015.9
2023-05-17T05:10:11.634Z,1015.9
2023-05-17T05:11:42.157Z,1015.9
2023-05-17T05:13:12.658Z,1016
2023-05-17T05:14:43.170Z,1016
2023-05-17T05:16:13.695Z,1016
2023-05-17T05:17:30.667Z,1016
2023-05-17T05:18:47.637Z,1016.1
2023-05-17T05:20:18.137Z,1016.1
2023-05-17T05:21:48.655Z,1016.1
2023-05-17T05:23:19.171Z,1016
2023-05-17T05:24:49.691Z,1016.1
2023-05-17T05:26:20.200Z,1016.1
2023-05-17T05:27:50.707Z,1016
2023-05-17T05:30:51.737Z,1016.1
2023-05-17T05:32:22.251Z,1016.1
2023-05-17T05:34:56.191Z,1016.2
2023-05-17T05:36:26.696Z,1016.2
2023-05-17T05:37:57.211Z,1016.2
2023-05-17T05:39:27.731Z,1016.2
2023-05-17T05:40:58.237Z,1016.2
2023-05-17T05:42:28.742Z,1016.3
2023-05-17T05:43:59.257Z,1016.3
2023-05-17T05:45:29.774Z,1016.3
2023-05-17T05:47:00.289Z,1016.4
2023-05-17T05:48:30.787Z,1016.4
2023-05-17T05:49:47.763Z,1016.4
2023-05-17T05:51:04.737Z,1016.4
2023-05-17T05:52:35.259Z,1016.5
2023-05-17T05:54:05.772Z,1016.4
2023-05-17T05:55:36.271Z,1016.5
2023-05-17T05:57:06.788Z,1016.5
2023-05-17T06:00:07.810Z,1016.5
2023-05-17T06:01:38.323Z,1016.6
2023-05-17T06:03:08.843Z,1016.5
2023-05-17T06:04:39.352Z,1016.5
2023-05-17T06:05:56.327Z,1016.6
2023-05-17T06:07:12.935Z,1016.5
2023-05-17T06:10:13.974Z,1016.6
2023-05-17T06:11:44.468Z,1016.7
2023-05-17T06:16:16.022Z,1016.7
2023-05-17T06:17:46.529Z,1016.8
2023-05-17T06:19:17.039Z,1016.8
2023-05-17T06:20:47.554Z,1016.7
2023-05-17T06:22:04.520Z,1016.7
2023-05-17T06:23:21.489Z,1016.8
2023-05-17T06:24:52.001Z,1016.8
2023-05-17T06:26:22.520Z,1016.8
2023-05-17T06:27:53.019Z,1016.9
2023-05-17T06:29:23.548Z,1016.8
2023-05-17T06:30:54.056Z,1016.8
2023-05-17T06:32:24.564Z,1016.9
2023-05-17T06:33:55.079Z,1016.8
2023-05-17T06:35:25.587Z,1016.8
2023-05-17T06:38:13.063Z,1016.9
2023-05-17T06:39:30.042Z,1016.8
2023-05-17T06:41:00.563Z,1016.9
2023-05-17T06:42:31.059Z,1016.9
2023-05-17T06:44:01.574Z,1016.9
2023-05-17T06:45:32.083Z,1016.9
2023-05-17T06:47:02.603Z,1016.9
2023-05-17T06:48:33.114Z,1016.9
2023-05-17T06:50:03.629Z,1016.8
2023-05-17T06:51:34.137Z,1016.9
2023-05-17T06:53:04.648Z,1016.9
2023-05-17T06:54:21.626Z,1016.9
2023-05-17T06:55:38.597Z,1016.9
2023-05-17T06:57:09.101Z,1016.9
2023-05-17T07:01:40.640Z,1016.9
2023-05-17T07:04:41.661Z,1016.9
2023-05-17T07:06:12.173Z,1016.9
2023-05-17T07:07:42.697Z,1016.9
2023-05-17T07:09:13.000Z,1016.9
2023-05-17T07:13:17.669Z,1017
2023-05-17T07:14:48.183Z,1016.9
2023-05-17T07:16:18.678Z,1017
2023-05-17T07:17:49.202Z,1016.9
2023-05-17T07:19:19.711Z,1016.9
2023-05-17T07:22:20.734Z,1016.9
2023-05-17T07:23:51.257Z,1017
2023-05-17T07:25:21.756Z,1017
2023-05-17T07:26:38.301Z,1017
2023-05-17T07:27:55.279Z,1017
2023-05-17T07:29:25.773Z,1016.9
2023-05-17T07:30:56.288Z,1017
2023-05-17T07:32:26.801Z,1017.1
2023-05-17T07:33:57.320Z,1017.1
2023-05-17T07:35:27.830Z,1017.1
2023-05-17T07:36:58.349Z,1017.2
2023-05-17T07:38:28.860Z,1017.2
2023-05-17T07:39:59.374Z,1017.3
2023-05-17T07:41:29.875Z,1017.3
2023-05-17T07:42:46.855Z,1017.4
2023-05-17T07:44:03.480Z,1017.4
2023-05-17T07:45:33.991Z,1017.4
2023-05-17T07:47:04.505Z,1017.4
2023-05-17T07:48:35.010Z,1017.4
2023-05-17T07:50:05.529Z,1017.5
2023-05-17T07:51:36.037Z,1017.4
2023-05-17T07:53:06.540Z,1017.5
2023-05-17T07:56:07.562Z,1017.5
2023-05-17T07:57:38.080Z,1017.5
2023-05-17T07:58:55.046Z,1017.5
2023-05-17T08:01:42.542Z,1017.5
2023-05-17T08:03:13.056Z,1017.5
2023-05-17T08:04:43.559Z,1017.5
2023-05-17T08:06:14.061Z,1017.6
2023-05-17T08:12:16.121Z,1017.7
2023-05-17T08:13:46.715Z,1017.7
2023-05-17T08:15:03.679Z,1017.7
2023-05-17T08:16:20.660Z,1017.7
2023-05-17T08:19:21.687Z,1017.7
2023-05-17T08:20:52.192Z,1017.8
2023-05-17T08:22:22.705Z,1017.8
2023-05-17T08:23:53.213Z,1017.7
2023-05-17T08:25:23.727Z,1017.7
2023-05-17T08:26:54.238Z,1017.8
2023-05-17T08:28:24.759Z,1017.6
2023-05-17T08:29:55.266Z,1017.8
2023-05-17T08:32:29.223Z,1017.8
2023-05-17T08:33:59.727Z,1017.8
2023-05-17T08:35:30.238Z,1017.7
2023-05-17T08:37:00.749Z,1017.8
2023-05-17T08:38:31.265Z,1017.8
2023-05-17T08:40:01.779Z,1017.8
2023-05-17T08:41:32.286Z,1017.8
2023-05-17T08:43:02.798Z,1017.9
2023-05-17T08:46:03.826Z,1017.9
2023-05-17T08:47:20.787Z,1017.9
2023-05-17T08:48:37.768Z,1017.9
2023-05-17T08:51:38.788Z,1018
2023-05-17T08:53:09.298Z,1017.9
2023-05-17T08:56:10.326Z,1018
2023-05-17T08:57:40.835Z,1017.9
2023-05-17T09:00:41.867Z,1017.8
2023-05-17T09:02:12.372Z,1017.8
2023-05-17T09:06:16.836Z,1017.8
2023-05-17T09:07:47.341Z,1017.9
2023-05-17T09:10:48.372Z,1017.9
2023-05-17T09:12:18.888Z,1017.8
2023-05-17T09:13:49.392Z,1017.8
2023-05-17T09:16:50.422Z,1017.8
2023-05-17T09:18:20.922Z,1017.9
2023-05-17T09:19:37.899Z,1017.9
2023-05-17T09:20:54.883Z,1017.8
2023-05-17T09:23:55.907Z,1017.8
2023-05-17T09:25:26.403Z,1017.8
2023-05-17T09:26:56.924Z,1017.8
2023-05-17T09:28:27.427Z,1017.7
2023-05-17T09:29:57.943Z,1017.8
2023-05-17T09:31:28.496Z,1017.7
2023-05-17T09:32:58.968Z,1017.8
2023-05-17T09:34:29.473Z,1017.7
2023-05-17T09:35:46.462Z,1017.8
2023-05-17T09:37:03.425Z,1017.7
2023-05-17T09:40:04.449Z,1017.8
2023-05-17T09:41:34.963Z,1017.9
2023-05-17T09:43:05.470Z,1017.9
2023-05-17T09:44:35.985Z,1017.8
2023-05-17T09:46:06.494Z,1017.8
2023-05-17T09:47:37.011Z,1017.7
2023-05-17T09:49:07.522Z,1017.8
2023-05-17T09:50:38.027Z,1017.8
2023-05-17T09:53:11.979Z,1017.7
2023-05-17T09:54:42.497Z,1017.7
2023-05-17T09:56:13.000Z,1017.8
2023-05-17T09:57:43.520Z,1017.8
2023-05-17T09:59:14.036Z,1017.9
2023-05-17T10:00:44.534Z,1017.8
2023-05-17T10:02:15.048Z,1017.8
2023-05-17T10:03:45.572Z,1017.8
2023-05-17T10:05:16.070Z,1017.8
2023-05-17T10:06:46.581Z,1017.8
2023-05-17T10:09:20.526Z,1017.9
2023-05-17T10:10:51.055Z,1017.9
2023-05-17T10:12:21.560Z,1017.8
2023-05-17T10:13:52.068Z,1017.7
2023-05-17T10:15:22.581Z,1017.9
2023-05-17T10:16:53.086Z,1017.8
2023-05-17T10:18:23.606Z,1017.8
2023-05-17T10:22:55.146Z,1017.8
2023-05-17T10:25:29.077Z,1017.8
2023-05-17T10:26:59.595Z,1017.8
2023-05-17T10:28:30.104Z,1017.9
2023-05-17T10:30:00.630Z,1017.9
2023-05-17T10:31:31.123Z,1017.8
2023-05-17T10:33:01.636Z,1017.9
2023-05-17T10:36:02.678Z,1017.9
2023-05-17T10:37:33.187Z,1017.8
2023-05-17T10:39:03.701Z,1017.8
2023-05-17T10:40:20.655Z,1017.8
2023-05-17T10:41:37.636Z,1017.9
2023-05-17T10:43:08.154Z,1017.9
2023-05-17T10:44:38.661Z,1018
2023-05-17T10:47:39.688Z,1018
2023-05-17T10:52:11.230Z,1018
2023-05-17T10:56:29.217Z,1018
2023-05-17T10:57:46.193Z,1018.1
2023-05-17T10:59:16.695Z,1018
2023-05-17T11:00:47.211Z,1018.1
2023-05-17T11:02:17.718Z,1018.2
2023-05-17T11:03:48.242Z,1018
2023-05-17T11:06:49.273Z,1018
2023-05-17T11:09:50.293Z,1018
2023-05-17T11:11:20.799Z,1017.8
2023-05-17T11:12:37.343Z,1018
2023-05-17T11:13:54.318Z,1017.9
2023-05-17T11:16:55.342Z,1017.9
2023-05-17T11:18:25.844Z,1017.9
2023-05-17T11:19:56.367Z,1018
2023-05-17T11:21:26.859Z,1018.1
2023-05-17T11:22:57.383Z,1018
2023-05-17T11:24:27.896Z,1018
2023-05-17T11:25:58.411Z,1017.9
2023-05-17T11:27:28.922Z,1018
2023-05-17T11:30:02.854Z,1018
2023-05-17T11:33:03.884Z,1018
2023-05-17T11:36:04.919Z,1018
2023-05-17T11:37:35.432Z,1018
2023-05-17T11:40:36.445Z,1018
2023-05-17T11:43:37.478Z,1018
2023-05-17T11:44:54.441Z,1017.9
2023-05-17T11:46:11.425Z,1017.9
2023-05-17T11:47:41.926Z,1017.9
2023-05-17T11:49:12.449Z,1017.9
2023-05-17T11:50:42.956Z,1018
2023-05-17T11:52:13.456Z,1018
2023-05-17T11:53:43.969Z,1018
2023-05-17T11:55:14.484Z,1017.9
2023-05-17T11:56:45.002Z,1017.9
2023-05-17T11:58:15.506Z,1017.9
2023-05-17T11:59:46.015Z,1018.1
2023-05-17T12:01:02.989Z,1018
2023-05-17T12:02:19.963Z,1018.1
2023-05-17T12:03:50.479Z,1018.1
2023-05-17T12:05:20.987Z,1018.1
2023-05-17T12:06:51.505Z,1018.1
2023-05-17T12:08:22.017Z,1018.2
2023-05-17T12:09:52.541Z,1018.1
2023-05-17T12:11:23.037Z,1018.1
2023-05-17T12:12:53.557Z,1018.1
2023-05-17T12:14:24.058Z,1018
2023-05-17T12:15:54.585Z,1018
2023-05-17T12:17:11.559Z,1018.1
2023-05-17T12:18:28.526Z,1018.1
2023-05-17T12:19:59.039Z,1018
2023-05-17T12:21:29.558Z,1018.1
2023-05-17T12:23:00.062Z,1018
2023-05-17T12:24:30.582Z,1018.1
2023-05-17T12:26:01.086Z,1018
2023-05-17T12:27:31.600Z,1018.1
2023-05-17T12:29:02.095Z,1018.1
2023-05-17T12:30:32.607Z,1018
2023-05-17T12:32:03.133Z,1018
2023-05-17T12:33:20.110Z,1017.9
2023-05-17T12:34:37.070Z,1018
2023-05-17T12:36:07.587Z,1017.9
2023-05-17T12:37:38.103Z,1018
2023-05-17T12:39:08.610Z,1018.1
2023-05-17T12:40:39.118Z,1018
2023-05-17T12:42:09.629Z,1018
2023-05-17T12:43:40.143Z,1018
2023-05-17T12:45:10.663Z,1018.1
2023-05-17T12:46:41.164Z,1018
2023-05-17T12:48:11.681Z,1018
2023-05-17T12:49:28.664Z,1018.1
2023-05-17T12:53:46.648Z,1018
2023-05-17T12:55:17.156Z,1017.9
2023-05-17T12:56:47.682Z,1018.1
2023-05-17T12:58:18.196Z,1017.9
2023-05-17T12:59:48.703Z,1018.1
2023-05-17T13:01:19.207Z,1018.1
2023-05-17T13:02:49.719Z,1018.1
2023-05-17T13:04:20.234Z,1018.1
2023-05-17T13:06:54.189Z,1018
2023-05-17T13:08:24.767Z,1018
2023-05-17T13:10:03.400Z,1018
2023-05-17T13:11:33.916Z,1017.9
2023-05-17T13:13:04.412Z,1017.9
2023-05-17T13:14:34.929Z,1017.9
2023-05-17T13:16:05.437Z,1018
2023-05-17T13:17:35.947Z,1017.9
2023-05-17T13:19:06.461Z,1017.9
2023-05-17T13:20:36.974Z,1018
2023-05-17T13:21:53.953Z,1018
2023-05-17T13:23:10.931Z,1017.9
2023-05-17T13:24:41.448Z,1018
2023-05-17T13:26:11.954Z,1018.1
2023-05-17T13:27:42.467Z,1018
2023-05-17T13:29:12.966Z,1018
2023-05-17T13:30:43.486Z,1018
2023-05-17T13:32:13.997Z,1017.9
2023-05-17T13:33:44.510Z,1018
2023-05-17T13:35:15.026Z,1018
2023-05-17T13:36:45.527Z,1018
2023-05-17T13:38:02.512Z,1018
2023-05-17T13:39:19.482Z,1018
2023-05-17T13:40:49.996Z,1018
2023-05-17T13:42:20.514Z,1018
2023-05-17T13:43:51.013Z,1018
2023-05-17T13:45:21.533Z,1018
2023-05-17T13:46:52.045Z,1018
2023-05-17T13:48:22.550Z,1018
2023-05-17T13:49:53.071Z,1018
2023-05-17T13:51:23.582Z,1018
2023-05-17T13:52:54.082Z,1018.1
2023-05-17T13:54:11.065Z,1018.1
2023-05-17T13:55:28.033Z,1018.1
2023-05-17T13:56:58.548Z,1018.1
2023-05-17T13:58:29.063Z,1018
2023-05-17T13:59:59.569Z,1018
2023-05-17T14:01:30.070Z,1018.1
2023-05-17T14:03:00.592Z,1018.1
2023-05-17T14:04:31.096Z,1018
2023-05-17T14:06:01.610Z,1018.1
2023-05-17T14:07:32.125Z,1018.1
2023-05-17T14:09:02.643Z,1018.1
2023-05-17T14:11:36.591Z,1018.1
2023-05-17T14:13:07.089Z,1018.1
2023-05-17T14:14:37.604Z,1018.1
2023-05-17T14:17:38.623Z,1018.1
2023-05-17T14:19:09.140Z,1018.1
2023-05-17T14:20:39.660Z,1018.1
2023-05-17T14:22:10.164Z,1018.2
2023-05-17T14:23:40.673Z,1018.2
2023-05-17T14:25:11.191Z,1018.2
2023-05-17T14:26:28.174Z,1018.3
2023-05-17T14:27:45.131Z,1018.2
2023-05-17T14:29:15.662Z,1018.2
2023-05-17T14:30:46.171Z,1018.2
2023-05-17T14:32:16.674Z,1018.2
2023-05-17T14:33:47.186Z,1018.2
2023-05-17T14:35:17.699Z,1018.2
2023-05-17T14:36:48.206Z,1018.3
2023-05-17T14:38:18.728Z,1018.4
2023-05-17T14:39:49.232Z,1018.3
2023-05-17T14:41:19.740Z,1018.2
2023-05-17T14:42:36.727Z,1018.2
2023-05-17T14:43:53.694Z,1018.2
2023-05-17T14:46:54.713Z,1018.4
2023-05-17T14:48:25.238Z,1018.5
2023-05-17T14:49:55.734Z,1018.4
2023-05-17T14:51:26.246Z,1018.5
2023-05-17T14:52:56.766Z,1018.5
2023-05-17T14:54:27.284Z,1018.4
2023-05-17T14:55:57.790Z,1018.5
2023-05-17T14:58:45.277Z,1018.5
2023-05-17T15:00:02.248Z,1018.6
2023-05-17T15:01:32.763Z,1018.6
2023-05-17T15:03:03.273Z,1018.5
2023-05-17T15:04:33.778Z,1018.5
2023-05-17T15:06:04.299Z,1018.6
2023-05-17T15:07:34.795Z,1018.7
2023-05-17T15:09:05.315Z,1018.6
2023-05-17T15:10:35.824Z,1018.5
2023-05-17T15:12:06.331Z,1018.5
2023-05-17T15:13:36.852Z,1018.5
2023-05-17T15:16:10.789Z,1018.6
2023-05-17T15:17:41.306Z,1018.7
2023-05-17T15:19:11.829Z,1018.6
2023-05-17T15:20:42.340Z,1018.6
2023-05-17T15:22:12.839Z,1018.7
2023-05-17T15:23:43.359Z,1018.7
2023-05-17T15:25:13.872Z,1018.7
2023-05-17T15:26:44.388Z,1018.7
2023-05-17T15:28:14.892Z,1018.7
2023-05-17T15:29:45.401Z,1018.7
2023-05-17T15:31:02.378Z,1018.7
2023-05-17T15:32:19.359Z,1018.7
2023-05-17T15:33:49.872Z,1018.7
2023-05-17T15:35:20.381Z,1018.7
2023-05-17T15:36:50.883Z,1018.7
2023-05-17T15:38:21.395Z,1018.7
2023-05-17T15:39:51.907Z,1018.8
2023-05-17T15:41:22.416Z,1018.7
2023-05-17T15:42:52.928Z,1018.8
2023-05-17T15:45:53.952Z,1018.7
2023-05-17T15:47:10.927Z,1018.7
2023-05-17T15:48:27.913Z,1018.8
2023-05-17T15:49:58.411Z,1018.8
2023-05-17T15:51:28.920Z,1018.8
2023-05-17T15:52:59.435Z,1018.8
2023-05-17T15:54:29.961Z,1018.8
2023-05-17T15:56:00.000Z,1018.8
2023-05-17T15:57:30.968Z,1018.8
2023-05-17T15:59:01.494Z,1018.7
2023-05-17T16:00:31.994Z,1018.8
2023-05-17T16:02:02.502Z,1018.7
2023-05-17T16:03:19.484Z,1018.7
2023-05-17T16:04:36.468Z,1018.7
2023-05-17T16:06:06.973Z,1018.7
2023-05-17T16:07:37.472Z,1018.7
2023-05-17T16:09:07.993Z,1018.7
2023-05-17T16:10:38.511Z,1018.7
2023-05-17T16:12:09.016Z,1018.7
2023-05-17T16:13:39.531Z,1018.6
2023-05-17T16:15:10.051Z,1018.6
2023-05-17T16:16:40.546Z,1018.7
2023-05-17T16:18:11.066Z,1018.6
2023-05-17T16:19:28.040Z,1018.8
2023-05-17T16:20:45.009Z,1018.8
2023-05-17T16:22:15.516Z,1018.8
2023-05-17T16:23:46.046Z,1018.8
2023-05-17T16:25:16.550Z,1018.9
2023-05-17T16:26:47.064Z,1018.9
2023-05-17T16:28:17.579Z,1018.9
2023-05-17T16:29:48.088Z,1019
2023-05-17T16:31:18.597Z,1019
2023-05-17T16:32:49.112Z,1019
2023-05-17T16:34:19.629Z,1019
2023-05-17T16:35:36.600Z,1019
2023-05-17T16:36:53.139Z,1019.1
2023-05-17T16:38:23.649Z,1019.1
2023-05-17T16:39:54.147Z,1019.1
2023-05-17T16:41:24.664Z,1019.1
2023-05-17T16:42:55.170Z,1019.1
2023-05-17T16:44:25.691Z,1019.1
2023-05-17T16:45:56.192Z,1019.1
2023-05-17T16:47:26.705Z,1019.1
2023-05-17T16:48:57.227Z,1019.1
2023-05-17T16:50:27.732Z,1019.2
2023-05-17T16:53:01.693Z,1019.1
2023-05-17T16:54:32.205Z,1019.1
2023-05-17T16:56:02.701Z,1019.1
2023-05-17T16:57:33.228Z,1019.1
2023-05-17T16:59:03.733Z,1019.1
2023-05-17T17:00:34.250Z,1019.1
2023-05-17T17:02:04.748Z,1019.1
2023-05-17T17:03:35.268Z,1019.1
2023-05-17T17:05:05.768Z,1019.1
2023-05-17T17:06:36.282Z,1019.1
2023-05-17T17:09:10.245Z,1019.2
2023-05-17T17:10:40.743Z,1019.2
2023-05-17T17:12:11.262Z,1019.2
2023-05-17T17:13:41.763Z,1019.3
2023-05-17T17:15:12.280Z,1019.2
2023-05-17T17:16:42.803Z,1019.3
2023-05-17T17:18:13.297Z,1019.2
2023-05-17T17:19:43.823Z,1019.2
2023-05-17T17:21:14.336Z,1019.2
2023-05-17T17:22:44.836Z,1019.2
2023-05-17T17:24:01.808Z,1019.2
2023-05-17T17:25:18.793Z,1019.2
2023-05-17T17:26:49.313Z,1019.2
2023-05-17T17:28:19.819Z,1019.2
2023-05-17T17:29:50.330Z,1019.2
2023-05-17T17:31:20.835Z,1019.2
2023-05-17T17:32:51.354Z,1019.2
2023-05-17T17:34:21.856Z,1019.2
2023-05-17T17:35:52.364Z,1019.2
2023-05-17T17:37:22.876Z,1019.2
2023-05-17T17:38:53.398Z,1019.2
2023-05-17T17:40:10.375Z,1019.3
2023-05-17T17:41:27.405Z,1019.3
2023-05-17T17:42:57.852Z,1019.3
2023-05-17T17:44:28.361Z,1019.3
2023-05-17T17:45:58.888Z,1019.3
2023-05-17T17:47:29.394Z,1019.3
2023-05-17T17:48:59.902Z,1019.3
2023-05-17T17:50:30.405Z,1019.3
2023-05-17T17:52:00.919Z,1019.4
2023-05-17T17:53:31.427Z,1019.4
2023-05-17T17:55:01.955Z,1019.3
2023-05-17T17:56:18.913Z,1019.4
2023-05-17T17:57:35.894Z,1019.4
2023-05-17T17:59:06.402Z,1019.4
2023-05-17T18:00:36.912Z,1019.4
2023-05-17T18:02:07.428Z,1019.4
2023-05-17T18:03:38.029Z,1019.5
2023-05-17T18:05:16.654Z,1019.5
2023-05-17T18:06:47.150Z,1019.5
2023-05-17T18:08:17.666Z,1019.5
2023-05-17T18:09:48.189Z,1019.5
2023-05-17T18:11:18.700Z,1019.5
2023-05-17T18:12:35.659Z,1019.5
2023-05-17T18:13:52.632Z,1019.6
2023-05-17T18:15:23.151Z,1019.6
2023-05-17T18:16:53.654Z,1019.6
2023-05-17T18:18:24.169Z,1019.6
2023-05-17T18:19:54.692Z,1019.7
2023-05-17T18:21:25.200Z,1019.7
2023-05-17T18:22:55.708Z,1019.6
2023-05-17T18:24:26.219Z,1019.7
2023-05-17T18:25:56.738Z,1019.7
2023-05-17T18:27:27.250Z,1019.7
2023-05-17T18:30:01.187Z,1019.7
2023-05-17T18:31:31.697Z,1019.8
2023-05-17T18:33:02.217Z,1019.8
2023-05-17T18:34:32.735Z,1019.8
2023-05-17T18:36:03.244Z,1019.9
2023-05-17T18:37:33.757Z,1019.9
2023-05-17T18:39:04.261Z,1019.9
2023-05-17T18:40:34.772Z,1019.9
2023-05-17T18:42:05.298Z,1019.9
2023-05-17T18:43:35.807Z,1019.9
2023-05-17T18:44:52.774Z,1019.9
2023-05-17T18:46:09.756Z,1020
2023-05-17T18:47:40.257Z,1020
2023-05-17T18:49:10.776Z,1020
2023-05-17T18:50:41.278Z,1020
2023-05-17T18:52:11.000Z,1020
2023-05-17T18:53:42.308Z,1020.1
2023-05-17T18:55:12.827Z,1020.1
2023-05-17T18:56:43.321Z,1020.1
2023-05-17T18:58:13.837Z,1020.1
2023-05-17T18:59:44.346Z,1020.2
2023-05-17T19:01:00.901Z,1020.1
2023-05-17T19:02:17.860Z,1020.2
2023-05-17T19:03:48.369Z,1020.2
2023-05-17T19:05:18.898Z,1020.2
2023-05-17T19:06:49.400Z,1020.2
2023-05-17T19:08:19.916Z,1020.3
2023-05-17T19:09:50.418Z,1020.4
2023-05-17T19:11:20.931Z,1020.3
2023-05-17T19:12:51.458Z,1020.4
2023-05-17T19:14:21.970Z,1020.5
2023-05-17T19:15:52.483Z,1020.5
2023-05-17T19:17:09.459Z,1020.5
2023-05-17T19:18:26.431Z,1020.6
2023-05-17T19:19:56.937Z,1020.5
2023-05-17T19:21:27.455Z,1020.5
2023-05-17T19:22:57.946Z,1020.5
2023-05-17T19:24:28.474Z,1020.6
2023-05-17T19:25:58.985Z,1020.6
2023-05-17T19:27:29.487Z,1020.7
2023-05-17T19:29:00.058Z,1020.7
2023-05-17T19:30:30.567Z,1020.7
2023-05-17T19:32:01.072Z,1020.7
2023-05-17T19:33:18.049Z,1020.8
2023-05-17T19:34:35.011Z,1020.8
2023-05-17T19:36:05.538Z,1020.8
2023-05-17T19:37:36.039Z,1020.8
2023-05-17T19:39:06.549Z,1020.8
2023-05-17T19:40:37.064Z,1020.8
2023-05-17T19:42:07.577Z,1020.8
2023-05-17T19:43:38.092Z,1020.8
2023-05-17T19:45:08.611Z,1020.8
2023-05-17T19:46:39.108Z,1020.9
2023-05-17T19:48:09.631Z,1020.9
2023-05-17T19:50:43.583Z,1020.9
2023-05-17T19:52:14.090Z,1020.9
2023-05-17T19:53:44.594Z,1021
2023-05-17T19:55:15.117Z,1021
2023-05-17T19:58:16.126Z,1021.1
2023-05-17T19:59:46.653Z,1021
2023-05-17T20:01:17.156Z,1021.1
2023-05-17T20:02:47.659Z,1021.1
2023-05-17T20:04:18.179Z,1021.1
2023-05-17T20:05:35.162Z,1021.1
2023-05-17T20:06:52.124Z,1021.1
2023-05-17T20:08:22.635Z,1021.2
2023-05-17T20:09:53.144Z,1021.2
2023-05-17T20:11:23.666Z,1021.2
2023-05-17T20:12:54.172Z,1021.2
2023-05-17T20:14:24.693Z,1021.2
2023-05-17T20:15:55.205Z,1021.2
2023-05-17T20:17:25.713Z,1021.2
2023-05-17T20:18:56.233Z,1021.2